Time;durP1;ratioP1;P1;durP2;ratioP2;P2;SDS_P1;SDS_P2;PMS_P1;PMS_P2;Temp;Humidity;BMP_temperature;BMP_pressure;BME280_temperature;BME280_humidity;BME280_pressure;Samples;Min_cycle;Max_cycle;Signal;HPM_P1;HPM_P2
2024/02/06 00:00:03;;;;;;;10.63;9.60;;;9.70;99.90;;;;;;5032414;28;20918;-75
2024/02/06 00:02:34;;;;;;;11.03;10.13;;;9.70;99.90;;;;;;5033711;28;20427;-75
2024/02/06 00:05:03;;;;;;;12.30;11.00;;;9.70;99.90;;;;;;5032228;28;20593;-75
2024/02/06 00:07:33;;;;;;;11.37;10.23;;;9.70;99.90;;;;;;5032331;28;20527;-75
2024/02/06 00:10:03;;;;;;;11.30;10.37;;;9.80;99.90;;;;;;5032580;28;20986;-76
2024/02/06 00:12:32;;;;;;;11.17;9.90;;;9.70;99.90;;;;;;5033407;28;20470;-75
2024/02/06 00:15:00;;;;;;;13.63;11.67;;;9.80;99.90;;;;;;5033372;28;20477;-75
2024/02/06 00:17:28;;;;;;;11.63;10.60;;;9.80;99.90;;;;;;5032185;28;20443;-76
2024/02/06 00:19:56;;;;;;;12.80;10.27;;;9.80;99.90;;;;;;5033358;28;20871;-75
2024/02/06 00:22:24;;;;;;;12.20;11.07;;;9.80;99.90;;;;;;5032117;28;20451;-75
2024/02/06 00:24:54;;;;;;;12.00;10.33;;;9.80;99.90;;;;;;5031972;28;20514;-75
2024/02/06 00:27:22;;;;;;;11.23;10.20;;;9.80;99.90;;;;;;5033284;28;20534;-75
2024/02/06 00:29:54;;;;;;;12.13;10.93;;;9.80;99.90;;;;;;5032106;28;20451;-75
2024/02/06 00:32:23;;;;;;;13.53;12.13;;;9.80;99.90;;;;;;5031992;28;20443;-75
2024/02/06 00:34:52;;;;;;;13.70;11.27;;;9.80;99.90;;;;;;5031884;28;20490;-75
2024/02/06 00:37:20;;;;;;;12.23;11.17;;;9.80;99.90;;;;;;5032276;28;20442;-75
2024/02/06 00:39:50;;;;;;;13.23;10.90;;;9.80;99.90;;;;;;5033175;28;20454;-75
2024/02/06 00:42:19;;;;;;;11.83;9.93;;;9.80;99.90;;;;;;5031898;28;20446;-75
2024/02/06 00:44:47;;;;;;;12.60;10.10;;;9.80;99.90;;;;;;5032964;28;20534;-75
2024/02/06 00:47:16;;;;;;;13.60;10.10;;;9.80;99.90;;;;;;5031860;28;20858;-75
2024/02/06 00:49:44;;;;;;;10.77;9.70;;;9.80;99.90;;;;;;5031688;28;20913;-75
2024/02/06 00:52:12;;;;;;;10.80;9.70;;;9.90;99.90;;;;;;5031788;28;20450;-75
2024/02/06 00:54:40;;;;;;;9.90;8.90;;;9.80;99.90;;;;;;5031624;28;20466;-75
2024/02/06 00:57:09;;;;;;;13.87;10.10;;;9.80;99.90;;;;;;5031738;28;20462;-75
2024/02/06 00:59:40;;;;;;;15.23;9.97;;;9.90;99.90;;;;;;5031704;28;20554;-75
2024/02/06 01:02:08;;;;;;;10.57;9.57;;;9.90;99.90;;;;;;5032919;28;20561;-76
2024/02/06 01:04:36;;;;;;;11.30;10.10;;;9.90;99.90;;;;;;5031671;28;20566;-75
2024/02/06 01:07:05;;;;;;;14.53;9.80;;;9.90;99.90;;;;;;5033269;28;20807;-76
2024/02/06 01:09:33;;;;;;;9.37;8.47;;;9.90;99.90;;;;;;5031617;28;20450;-75
2024/02/06 01:12:01;;;;;;;12.43;10.20;;;9.90;99.90;;;;;;5031997;28;20549;-76
2024/02/06 01:14:29;;;;;;;10.60;9.50;;;9.90;99.90;;;;;;5033088;28;20454;-75
2024/02/06 01:16:59;;;;;;;10.63;9.10;;;9.90;99.90;;;;;;5031519;28;20910;-75
2024/02/06 01:19:27;;;;;;;12.87;10.43;;;9.90;99.90;;;;;;5031613;28;20481;-76
2024/02/06 01:21:55;;;;;;;11.33;10.13;;;9.90;99.90;;;;;;5031505;28;20447;-75
2024/02/06 01:24:24;;;;;;;10.70;9.60;;;9.90;99.90;;;;;;5032815;28;20963;-75
2024/02/06 01:26:53;;;;;;;10.17;9.17;;;9.90;99.90;;;;;;5033059;28;20788;-76
2024/02/06 01:29:21;;;;;;;11.80;9.27;;;9.90;99.90;;;;;;5031425;28;20904;-75
2024/02/06 01:31:49;;;;;;;10.97;9.90;;;9.90;99.90;;;;;;5031427;28;20983;-76
2024/02/06 01:34:19;;;;;;;11.27;10.10;;;10.00;99.90;;;;;;5031422;28;20510;-75
2024/02/06 01:36:48;;;;;;;13.13;9.57;;;10.00;99.90;;;;;;5031433;28;20446;-75
2024/02/06 01:39:17;;;;;;;10.87;9.80;;;10.00;99.90;;;;;;5032655;28;20886;-75
2024/02/06 01:41:45;;;;;;;13.23;10.17;;;10.00;99.90;;;;;;5031358;28;20466;-75
2024/02/06 01:44:14;;;;;;;14.57;10.50;;;10.00;99.90;;;;;;5032558;28;20991;-75
2024/02/06 01:46:42;;;;;;;11.87;9.10;;;10.00;99.90;;;;;;5031333;28;20511;-75
2024/02/06 01:49:12;;;;;;;11.83;9.87;;;10.00;99.90;;;;;;5035801;28;20435;-75
2024/02/06 01:51:42;;;;;;;12.73;9.70;;;10.00;99.90;;;;;;5036345;28;20530;-75
2024/02/06 01:54:10;;;;;;;13.10;10.40;;;10.00;99.90;;;;;;5034792;28;20458;-75
2024/02/06 01:56:39;;;;;;;11.43;9.07;;;10.00;99.90;;;;;;5034757;28;20811;-75
2024/02/06 01:59:07;;;;;;;11.20;10.10;;;10.00;99.90;;;;;;5034670;28;20504;-75
2024/02/06 02:01:36;;;;;;;12.23;10.93;;;10.00;99.90;;;;;;5036229;28;20958;-75
2024/02/06 02:04:05;;;;;;;11.13;10.03;;;10.00;99.90;;;;;;5035877;28;20455;-75
2024/02/06 02:06:34;;;;;;;11.40;10.13;;;10.00;99.90;;;;;;5035734;28;20463;-75
2024/02/06 02:09:05;;;;;;;11.63;10.00;;;10.00;99.90;;;;;;5034798;28;20439;-75
2024/02/06 02:11:35;;;;;;;13.70;9.33;;;10.00;99.90;;;;;;5034614;28;20457;-75
2024/02/06 02:14:04;;;;;;;11.47;10.27;;;10.00;99.90;;;;;;5034319;28;20581;-75
2024/02/06 02:16:32;;;;;;;12.07;10.80;;;10.00;99.90;;;;;;5035657;28;20435;-75
2024/02/06 02:19:00;;;;;;;11.30;10.17;;;10.00;99.90;;;;;;5035608;28;20457;-76
2024/02/06 02:21:30;;;;;;;12.53;10.60;;;10.00;99.90;;;;;;5035624;28;20443;-75
2024/02/06 02:23:59;;;;;;;12.67;10.97;;;10.00;99.90;;;;;;5035728;28;20557;-76
2024/02/06 02:26:28;;;;;;;12.83;10.10;;;10.00;99.90;;;;;;5035490;28;20478;-75
2024/02/06 02:28:56;;;;;;;12.50;10.77;;;10.00;99.90;;;;;;5034230;28;20447;-75
2024/02/06 02:31:25;;;;;;;11.13;10.03;;;10.00;99.90;;;;;;5035394;28;20463;-75
2024/02/06 02:33:54;;;;;;;15.83;10.40;;;10.00;99.90;;;;;;5035418;28;20498;-75
2024/02/06 02:36:23;;;;;;;12.13;10.50;;;10.00;99.90;;;;;;5034105;28;20446;-76
2024/02/06 02:38:52;;;;;;;12.87;10.83;;;10.00;99.90;;;;;;5034127;28;20447;-76
2024/02/06 02:41:21;;;;;;;11.37;9.67;;;10.00;99.90;;;;;;5033900;28;20474;-76
2024/02/06 02:43:49;;;;;;;12.37;10.60;;;10.00;99.90;;;;;;5035094;28;20853;-76
2024/02/06 02:46:17;;;;;;;14.80;10.00;;;10.00;99.90;;;;;;5033809;28;20509;-75
2024/02/06 02:48:45;;;;;;;11.07;9.93;;;10.00;99.90;;;;;;5035135;28;20431;-75
2024/02/06 02:51:14;;;;;;;11.17;10.00;;;10.00;99.90;;;;;;5035322;28;20446;-75
2024/02/06 02:53:42;;;;;;;12.50;8.97;;;10.00;99.90;;;;;;5034905;28;20534;-75
2024/02/06 02:56:12;;;;;;;10.47;9.47;;;10.10;99.90;;;;;;5033593;28;20520;-75
2024/02/06 02:58:41;;;;;;;10.70;9.53;;;10.00;99.90;;;;;;5033008;28;20474;-75
2024/02/06 03:01:09;;;;;;;11.30;10.20;;;10.00;99.90;;;;;;5034546;28;20439;-75
2024/02/06 03:03:37;;;;;;;15.33;11.40;;;10.10;99.90;;;;;;5033538;28;20447;-75
2024/02/06 03:06:06;;;;;;;14.27;9.37;;;10.00;99.90;;;;;;5034924;28;20987;-75
2024/02/06 03:08:34;;;;;;;14.57;9.47;;;10.00;99.90;;;;;;5033458;28;20960;-76
2024/02/06 03:11:02;;;;;;;13.20;10.40;;;10.10;99.90;;;;;;5034728;28;20431;-75
2024/02/06 03:13:32;;;;;;;16.90;10.10;;;10.00;99.90;;;;;;5033178;28;20524;-75
2024/02/06 03:16:01;;;;;;;11.30;10.23;;;10.00;99.90;;;;;;5033295;28;20451;-75
2024/02/06 03:18:29;;;;;;;14.90;10.10;;;10.00;99.90;;;;;;5034801;28;20824;-75
2024/02/06 03:20:57;;;;;;;10.83;9.73;;;10.00;99.90;;;;;;5034505;28;20443;-76
2024/02/06 03:23:25;;;;;;;12.60;10.50;;;10.00;99.90;;;;;;5033160;28;20453;-75
2024/02/06 03:25:53;;;;;;;12.10;10.40;;;10.00;99.90;;;;;;5034496;28;20517;-75
2024/02/06 03:28:22;;;;;;;10.80;9.70;;;10.00;99.90;;;;;;5034313;28;20443;-76
2024/02/06 03:30:51;;;;;;;23.83;11.90;;;10.00;99.90;;;;;;5034322;28;20489;-76
2024/02/06 03:33:19;;;;;;;10.73;9.70;;;10.00;99.90;;;;;;5034317;28;20435;-76
2024/02/06 03:35:48;;;;;;;15.70;9.70;;;10.00;99.90;;;;;;5034046;28;20459;-75
2024/02/06 03:38:18;;;;;;;13.73;11.40;;;10.00;99.90;;;;;;5032849;28;20949;-76
2024/02/06 03:40:46;;;;;;;13.20;10.30;;;10.00;99.90;;;;;;5034531;28;20422;-76
2024/02/06 03:43:14;;;;;;;12.73;9.90;;;10.00;99.90;;;;;;5032811;28;20463;-76
2024/02/06 03:45:43;;;;;;;14.70;10.30;;;10.00;99.90;;;;;;5033936;28;20525;-75
2024/02/06 03:48:14;;;;;;;11.80;9.30;;;10.00;99.90;;;;;;5032757;28;20471;-75
2024/02/06 03:50:43;;;;;;;13.80;9.80;;;10.00;99.90;;;;;;5034204;28;20423;-76
2024/02/06 03:53:11;;;;;;;12.67;9.47;;;10.00;99.90;;;;;;5032545;28;20445;-75
2024/02/06 03:55:39;;;;;;;15.13;10.13;;;10.00;99.90;;;;;;5032372;28;20459;-75
2024/02/06 03:58:09;;;;;;;11.90;10.00;;;10.00;99.90;;;;;;5032521;28;21015;-76
2024/02/06 04:00:37;;;;;;;14.30;11.00;;;10.00;99.90;;;;;;5032357;28;20470;-75
2024/02/06 04:03:05;;;;;;;11.83;10.43;;;10.00;99.90;;;;;;5032510;28;20948;-75
2024/02/06 04:05:35;;;;;;;14.37;11.20;;;10.00;99.90;;;;;;5034525;28;20455;-76
2024/02/06 04:08:04;;;;;;;13.80;9.77;;;10.00;99.90;;;;;;5032283;28;20471;-76
2024/02/06 04:10:32;;;;;;;12.10;10.40;;;10.10;99.90;;;;;;5032123;28;20465;-76
2024/02/06 04:13:00;;;;;;;16.20;10.80;;;10.00;99.90;;;;;;5032207;28;20486;-76
2024/02/06 04:15:29;;;;;;;13.03;10.47;;;10.00;99.90;;;;;;5032298;28;20467;-75
2024/02/06 04:17:57;;;;;;;12.20;10.63;;;10.00;99.90;;;;;;5032273;28;20447;-76
2024/02/06 04:20:26;;;;;;;13.17;10.73;;;10.00;99.90;;;;;;5033480;28;20493;-75
2024/02/06 04:22:55;;;;;;;11.10;10.00;;;10.00;99.90;;;;;;5032235;28;20445;-77
2024/02/06 04:25:23;;;;;;;12.10;10.80;;;10.00;99.90;;;;;;5032123;28;20557;-76
2024/02/06 04:27:52;;;;;;;12.43;10.50;;;10.00;99.90;;;;;;5032071;28;20470;-76
2024/02/06 04:30:20;;;;;;;13.50;10.00;;;10.00;99.90;;;;;;5032116;28;20443;-76
2024/02/06 04:32:51;;;;;;;12.50;10.90;;;10.00;99.90;;;;;;5032059;28;20489;-76
2024/02/06 04:35:20;;;;;;;13.47;11.10;;;10.00;99.90;;;;;;5031967;28;20463;-75
2024/02/06 04:37:49;;;;;;;14.60;11.27;;;10.00;99.90;;;;;;5032032;28;20435;-75
2024/02/06 04:40:19;;;;;;;11.30;10.10;;;10.00;99.90;;;;;;5031815;28;20455;-75
2024/02/06 04:42:50;;;;;;;14.83;11.10;;;10.10;99.90;;;;;;5032014;28;20443;-74
2024/02/06 04:45:19;;;;;;;13.83;10.70;;;10.00;99.90;;;;;;5033110;28;20494;-75
2024/02/06 04:47:47;;;;;;;12.43;10.70;;;10.00;99.90;;;;;;5031907;28;20829;-75
2024/02/06 04:50:18;;;;;;;11.60;10.33;;;10.00;99.90;;;;;;5033170;28;20431;-75
2024/02/06 04:52:47;;;;;;;15.47;10.47;;;10.00;99.90;;;;;;5031880;28;20536;-76
2024/02/06 04:55:15;;;;;;;15.00;11.17;;;10.10;99.90;;;;;;5032957;28;20459;-75
2024/02/06 04:57:45;;;;;;;11.57;10.37;;;10.00;99.90;;;;;;5033463;28;20435;-75
2024/02/06 05:00:14;;;;;;;12.40;10.13;;;10.10;99.90;;;;;;5031811;28;20445;-75
2024/02/06 05:02:43;;;;;;;13.70;10.67;;;10.00;99.90;;;;;;5031807;28;20550;-75
2024/02/06 05:05:11;;;;;;;13.97;12.50;;;10.00;99.90;;;;;;5031641;28;20463;-76
2024/02/06 05:07:40;;;;;;;15.20;11.70;;;10.10;99.90;;;;;;5032258;28;20489;-75
2024/02/06 05:10:10;;;;;;;14.17;11.07;;;10.10;99.90;;;;;;5031743;28;20443;-76
2024/02/06 05:12:38;;;;;;;17.00;11.50;;;10.00;99.90;;;;;;5031632;28;20528;-75
2024/02/06 05:15:09;;;;;;;14.93;11.67;;;10.10;99.90;;;;;;5031522;28;20509;-75
2024/02/06 05:17:40;;;;;;;15.83;12.27;;;10.10;99.90;;;;;;5032898;28;20554;-75
2024/02/06 05:20:10;;;;;;;15.23;11.93;;;10.00;99.90;;;;;;5032927;28;20419;-75
2024/02/06 05:22:39;;;;;;;15.37;11.00;;;10.00;99.90;;;;;;5033946;28;20488;-75
2024/02/06 05:25:08;;;;;;;15.27;11.73;;;10.00;99.90;;;;;;5036680;28;20466;-75
2024/02/06 05:27:37;;;;;;;20.03;12.40;;;10.00;99.90;;;;;;5036681;28;20466;-76
2024/02/06 05:30:08;;;;;;;13.03;11.03;;;10.00;99.90;;;;;;5036915;28;20431;-75
2024/02/06 05:32:37;;;;;;;14.10;11.30;;;10.00;99.90;;;;;;5036532;28;20423;-76
2024/02/06 05:35:06;;;;;;;12.43;11.13;;;10.00;99.90;;;;;;5035321;28;20900;-76
2024/02/06 05:37:35;;;;;;;13.03;11.70;;;10.00;99.90;;;;;;5035315;28;20550;-76
2024/02/06 05:40:05;;;;;;;14.80;11.57;;;10.00;99.90;;;;;;5036441;28;21081;-76
2024/02/06 05:42:34;;;;;;;14.70;11.77;;;10.00;99.90;;;;;;5036711;28;20897;-75
2024/02/06 05:45:04;;;;;;;14.53;11.43;;;10.00;99.90;;;;;;5035137;28;20534;-76
2024/02/06 05:47:34;;;;;;;13.83;11.10;;;10.00;99.90;;;;;;5035337;28;20467;-76
2024/02/06 05:50:03;;;;;;;13.37;11.97;;;10.00;99.90;;;;;;5034889;28;20445;-76
2024/02/06 05:52:32;;;;;;;13.33;11.80;;;10.00;99.90;;;;;;5034979;28;20451;-76
2024/02/06 05:55:00;;;;;;;21.17;12.20;;;10.00;99.90;;;;;;5036035;28;20466;-76
2024/02/06 05:57:29;;;;;;;13.97;11.60;;;10.00;99.90;;;;;;5036368;28;20438;-76
2024/02/06 05:59:57;;;;;;;15.67;11.33;;;10.00;99.90;;;;;;5035097;28;20447;-76
2024/02/06 06:02:25;;;;;;;12.20;10.80;;;10.00;99.90;;;;;;5036076;28;20443;-76
2024/02/06 06:04:55;;;;;;;12.73;10.60;;;10.00;99.90;;;;;;5036122;28;20451;-77
2024/02/06 06:07:23;;;;;;;17.80;12.87;;;10.00;99.90;;;;;;5035210;28;20467;-77
2024/02/06 06:09:51;;;;;;;17.87;11.27;;;10.00;99.90;;;;;;5036215;28;20457;-76
2024/02/06 06:12:20;;;;;;;17.23;11.47;;;10.00;99.90;;;;;;5034661;28;20454;-76
2024/02/06 06:14:48;;;;;;;19.37;11.70;;;9.90;99.90;;;;;;5035806;28;20453;-76
2024/02/06 06:17:16;;;;;;;14.90;11.73;;;9.90;99.90;;;;;;5035857;28;20496;-77
2024/02/06 06:19:44;;;;;;;14.03;10.67;;;9.90;99.90;;;;;;5035869;28;20457;-77
2024/02/06 06:22:14;;;;;;;12.33;10.90;;;9.90;99.90;;;;;;5035797;28;20443;-76
2024/02/06 06:24:45;;;;;;;15.53;10.50;;;9.90;99.90;;;;;;5036005;28;20454;-77
2024/02/06 06:27:14;;;;;;;12.37;10.97;;;9.90;99.90;;;;;;5035669;28;20488;-77
2024/02/06 06:29:45;;;;;;;11.27;10.10;;;9.90;99.90;;;;;;5034276;28;20445;-76
2024/02/06 06:32:13;;;;;;;15.87;10.87;;;9.90;99.90;;;;;;5035629;28;20495;-76
2024/02/06 06:34:42;;;;;;;10.50;9.47;;;9.90;99.90;;;;;;5035353;28;20459;-76
2024/02/06 06:37:11;;;;;;;12.53;9.47;;;9.90;99.90;;;;;;5034161;28;20932;-76
2024/02/06 06:39:41;;;;;;;11.73;10.07;;;9.90;99.90;;;;;;5034144;28;20534;-76
2024/02/06 06:42:09;;;;;;;13.67;10.87;;;9.90;99.90;;;;;;5035552;28;20803;-76
2024/02/06 06:44:37;;;;;;;12.97;9.53;;;9.90;99.90;;;;;;5035159;28;20455;-76
2024/02/06 06:47:06;;;;;;;13.03;9.50;;;9.90;99.90;;;;;;5033956;28;20817;-76
2024/02/06 06:49:35;;;;;;;13.23;9.20;;;9.90;99.90;;;;;;5035079;28;20485;-76
2024/02/06 06:52:05;;;;;;;15.30;9.17;;;9.90;99.90;;;;;;5035229;28;20454;-77
2024/02/06 06:54:33;;;;;;;12.30;8.50;;;9.90;99.90;;;;;;5035067;28;20458;-77
2024/02/06 06:57:04;;;;;;;9.83;8.30;;;9.80;99.90;;;;;;5033684;28;20481;-77
2024/02/06 06:59:32;;;;;;;14.30;8.60;;;9.90;99.90;;;;;;5035211;28;20497;-76
2024/02/06 07:02:01;;;;;;;12.03;8.77;;;9.90;99.90;;;;;;5035094;28;20463;-76
2024/02/06 07:04:29;;;;;;;14.30;9.00;;;9.90;99.90;;;;;;5033783;28;20510;-76
2024/02/06 07:06:57;;;;;;;14.77;8.67;;;9.90;99.90;;;;;;5035121;28;20442;-76
2024/02/06 07:09:26;;;;;;;12.07;8.90;;;9.90;99.90;;;;;;5033504;28;20554;-77
2024/02/06 07:11:55;;;;;;;13.37;8.87;;;9.90;99.90;;;;;;5034868;28;20439;-76
2024/02/06 07:14:24;;;;;;;12.70;8.77;;;9.90;99.90;;;;;;5033354;28;20505;-76
2024/02/06 07:16:52;;;;;;;10.03;7.87;;;10.00;99.90;;;;;;5033509;28;20442;-76
2024/02/06 07:19:23;;;;;;;13.50;8.30;;;10.00;99.90;;;;;;5033684;28;20478;-76
2024/02/06 07:21:55;;;;;;;10.03;8.27;;;10.00;99.90;;;;;;5033549;28;20510;-76
2024/02/06 07:24:25;;;;;;;9.87;7.90;;;10.00;99.90;;;;;;5033104;28;20494;-76
2024/02/06 07:26:54;;;;;;;13.27;8.30;;;10.10;99.90;;;;;;5033350;28;20497;-77
2024/02/06 07:29:24;;;;;;;10.57;9.03;;;10.10;99.90;;;;;;5034621;28;20569;-77
2024/02/06 07:31:52;;;;;;;13.83;9.60;;;10.10;99.90;;;;;;5033160;28;20442;-76
2024/02/06 07:34:21;;;;;;;11.27;8.77;;;10.10;99.90;;;;;;5033017;28;20462;-76
2024/02/06 07:36:49;;;;;;;10.80;9.23;;;10.10;99.90;;;;;;5033209;28;20455;-77
2024/02/06 07:39:18;;;;;;;10.47;9.37;;;10.10;99.90;;;;;;5035100;28;20435;-74
2024/02/06 07:41:46;;;;;;;13.30;9.70;;;10.10;99.90;;;;;;5033426;28;20451;-76
2024/02/06 07:44:15;;;;;;;14.47;9.90;;;10.10;99.90;;;;;;5033426;28;20566;-76
2024/02/06 07:46:44;;;;;;;12.13;9.10;;;10.10;99.90;;;;;;5032574;28;20451;-76
2024/02/06 07:49:12;;;;;;;12.40;9.37;;;10.10;99.90;;;;;;5032844;28;20521;-76
2024/02/06 07:51:41;;;;;;;15.53;9.20;;;10.10;99.90;;;;;;5034146;28;20430;-76
2024/02/06 07:54:10;;;;;;;13.87;10.17;;;10.10;99.90;;;;;;5033964;28;20493;-76
2024/02/06 07:56:39;;;;;;;14.20;9.47;;;10.10;99.90;;;;;;5034276;28;20529;-76
2024/02/06 07:59:11;;;;;;;10.57;9.20;;;10.10;99.90;;;;;;5032675;28;20455;-76
2024/02/06 08:01:39;;;;;;;12.37;9.70;;;10.10;99.90;;;;;;5033857;28;20427;-76
2024/02/06 08:04:09;;;;;;;13.03;9.27;;;10.10;99.90;;;;;;5033749;28;20466;-76
2024/02/06 08:06:37;;;;;;;13.47;8.97;;;10.20;99.90;;;;;;5033810;28;20435;-76
2024/02/06 08:09:06;;;;;;;12.83;9.73;;;10.20;99.90;;;;;;5033083;28;20474;-77
2024/02/06 08:11:35;;;;;;;12.00;9.33;;;10.20;99.90;;;;;;5032515;28;20458;-76
2024/02/06 08:14:03;;;;;;;16.20;10.53;;;10.20;99.90;;;;;;5033223;28;20502;-76
2024/02/06 08:16:32;;;;;;;14.83;9.73;;;10.20;99.90;;;;;;5033919;28;20439;-76
2024/02/06 08:19:00;;;;;;;14.70;10.10;;;10.20;99.90;;;;;;5032398;28;20481;-76
2024/02/06 08:21:30;;;;;;;14.70;9.87;;;10.20;99.90;;;;;;5032418;28;20439;-77
2024/02/06 08:23:58;;;;;;;13.40;10.30;;;10.20;99.90;;;;;;5032116;28;20533;-76
2024/02/06 08:26:26;;;;;;;13.57;9.87;;;10.20;99.90;;;;;;5033398;28;20465;-76
2024/02/06 08:28:54;;;;;;;12.17;9.63;;;10.20;99.90;;;;;;5033371;28;20467;-76
2024/02/06 08:31:23;;;;;;;13.27;9.27;;;10.20;99.90;;;;;;5032185;28;20455;-76
2024/02/06 08:33:51;;;;;;;13.50;9.40;;;10.20;99.90;;;;;;5032025;28;20528;-76
2024/02/06 08:36:22;;;;;;;12.27;10.10;;;10.20;99.90;;;;;;5033362;28;20435;-76
2024/02/06 08:38:52;;;;;;;15.10;10.90;;;10.20;99.90;;;;;;5032071;28;20439;-76
2024/02/06 08:41:22;;;;;;;17.37;12.63;;;10.20;99.90;;;;;;5033267;28;20446;-76
2024/02/06 08:43:50;;;;;;;13.80;11.60;;;10.20;99.90;;;;;;5031945;28;20463;-76
2024/02/06 08:46:24;;;;;;;13.57;11.87;;;10.20;99.90;;;;;;5032110;28;20439;-76
2024/02/06 08:48:54;;;;;;;12.47;11.17;;;10.20;99.90;;;;;;5031920;28;20478;-76
2024/02/06 08:51:22;;;;;;;15.17;12.50;;;10.20;99.90;;;;;;5033199;28;20439;-76
2024/02/06 08:53:52;;;;;;;16.63;12.13;;;10.20;99.90;;;;;;5031946;28;20470;-76
2024/02/06 08:56:21;;;;;;;16.43;12.43;;;10.20;99.90;;;;;;5033453;28;20422;-76
2024/02/06 08:58:49;;;;;;;14.90;12.77;;;10.30;99.90;;;;;;5035199;28;20473;-77
2024/02/06 09:01:18;;;;;;;16.70;14.00;;;10.20;99.90;;;;;;5036008;28;20454;-77
2024/02/06 09:03:46;;;;;;;14.97;11.97;;;10.30;99.90;;;;;;5037173;28;20466;-76
2024/02/06 09:06:14;;;;;;;13.90;12.40;;;10.30;99.90;;;;;;5035993;28;20442;-77
2024/02/06 09:08:43;;;;;;;13.20;11.10;;;10.30;99.90;;;;;;5035826;28;20451;-77
2024/02/06 09:11:12;;;;;;;13.00;10.80;;;10.30;99.90;;;;;;5037351;28;20450;-77
2024/02/06 09:13:41;;;;;;;12.87;10.93;;;10.30;99.90;;;;;;5035507;28;20465;-76
2024/02/06 09:16:09;;;;;;;12.37;11.17;;;10.30;99.90;;;;;;5036143;28;20956;-77
2024/02/06 09:18:39;;;;;;;17.67;10.90;;;10.40;99.90;;;;;;5035979;28;20541;-77
2024/02/06 09:21:07;;;;;;;15.50;10.17;;;10.40;99.90;;;;;;5036553;28;20446;-77
2024/02/06 09:23:36;;;;;;;17.43;10.77;;;10.40;99.90;;;;;;5035563;28;20459;-77
2024/02/06 09:26:05;;;;;;;13.30;10.27;;;10.40;99.90;;;;;;5035666;28;20463;-77
2024/02/06 09:28:35;;;;;;;12.53;9.33;;;10.40;99.90;;;;;;5035879;28;20600;-77
2024/02/06 09:31:03;;;;;;;11.30;9.30;;;10.40;99.90;;;;;;5035503;28;21035;-76
2024/02/06 09:33:32;;;;;;;15.33;9.53;;;10.40;99.90;;;;;;5035592;28;20438;-76
2024/02/06 09:36:01;;;;;;;14.33;10.70;;;10.40;99.90;;;;;;5035278;28;20446;-76
2024/02/06 09:38:29;;;;;;;12.83;9.90;;;10.40;99.90;;;;;;5035271;28;20508;-76
2024/02/06 09:40:57;;;;;;;10.77;8.57;;;10.40;99.90;;;;;;5036346;28;20474;-76
2024/02/06 09:43:26;;;;;;;15.40;8.50;;;10.40;99.90;;;;;;5035160;28;20451;-77
2024/02/06 09:45:56;;;;;;;15.90;9.10;;;10.50;99.90;;;;;;5036626;28;20932;-76
2024/02/06 09:48:25;;;;;;;12.57;8.00;;;10.50;99.90;;;;;;5035369;28;20451;-77
2024/02/06 09:50:54;;;;;;;15.23;8.50;;;10.50;99.90;;;;;;5036612;28;20471;-77
2024/02/06 09:53:24;;;;;;;14.60;7.77;;;10.50;99.90;;;;;;5035325;28;20875;-77
2024/02/06 09:55:52;;;;;;;12.93;7.73;;;10.50;99.90;;;;;;5034842;28;20471;-76
2024/02/06 09:58:21;;;;;;;12.27;7.87;;;10.60;99.90;;;;;;5036278;28;20465;-76
2024/02/06 10:00:53;;;;;;;12.70;7.47;;;10.60;99.90;;;;;;5035241;28;20473;-77
2024/02/06 10:03:26;;;;;;;11.20;7.30;;;10.60;99.90;;;;;;5036525;28;20786;-77
2024/02/06 10:05:59;;;;;;;16.10;8.43;;;10.60;99.90;;;;;;5034986;28;20528;-76
2024/02/06 10:08:27;;;;;;;15.20;7.03;;;10.70;99.90;;;;;;5034459;28;20443;-77
2024/02/06 10:10:58;;;;;;;13.73;6.80;;;10.70;99.90;;;;;;5034794;28;20471;-77
2024/02/06 10:13:26;;;;;;;15.93;7.30;;;10.70;99.90;;;;;;5034644;28;20553;-76
2024/02/06 10:15:55;;;;;;;9.87;6.80;;;10.80;99.90;;;;;;5034699;28;20493;-76
2024/02/06 10:18:24;;;;;;;14.03;7.17;;;10.70;99.90;;;;;;5034591;28;20446;-76
2024/02/06 10:20:54;;;;;;;18.10;7.67;;;10.80;99.90;;;;;;5034543;28;21028;-76
2024/02/06 10:23:22;;;;;;;13.73;7.90;;;10.80;99.90;;;;;;5035720;28;20854;-77
2024/02/06 10:25:51;;;;;;;10.37;6.90;;;10.80;99.90;;;;;;5034314;28;20482;-76
2024/02/06 10:28:23;;;;;;;8.13;6.97;;;10.80;99.90;;;;;;5035561;28;20439;-76
2024/02/06 10:30:52;;;;;;;14.63;7.40;;;10.80;99.90;;;;;;5034326;28;21038;-76
2024/02/06 10:33:21;;;;;;;11.90;6.47;;;10.80;99.90;;;;;;5034638;28;20479;-76
2024/02/06 10:36:01;;;;;;;12.73;7.47;;;10.80;99.90;;;;;;5034400;28;20529;-76
2024/02/06 10:38:29;;;;;;;9.23;6.70;;;10.80;99.90;;;;;;5035595;28;20908;-76
2024/02/06 10:40:58;;;;;;;11.30;7.80;;;10.80;99.90;;;;;;5034381;28;20546;-76
2024/02/06 10:43:44;;;;;;;13.93;7.20;;;10.90;99.90;;;;;;5034431;28;20431;-77
2024/02/06 10:46:21;;;;;;;11.40;6.90;;;10.80;99.90;;;;;;5035684;28;20823;-76
2024/02/06 10:48:50;;;;;;;10.27;7.07;;;10.90;99.90;;;;;;5034088;28;20949;-77
2024/02/06 10:51:24;;;;;;;10.13;6.00;;;10.90;99.90;;;;;;5033890;28;21046;-76
2024/02/06 10:53:57;;;;;;;10.57;6.20;;;10.90;99.90;;;;;;5033879;28;20930;-77
2024/02/06 10:56:27;;;;;;;12.47;6.90;;;10.90;99.90;;;;;;5033967;28;20451;-76
2024/02/06 10:58:57;;;;;;;17.73;7.70;;;10.90;99.90;;;;;;5034948;28;20505;-77
2024/02/06 11:01:34;;;;;;;9.63;7.20;;;10.90;99.90;;;;;;5033895;28;20814;-77
2024/02/06 11:04:06;;;;;;;15.77;8.07;;;10.90;99.90;;;;;;5035073;28;20469;-77
2024/02/06 11:06:43;;;;;;;11.37;6.63;;;10.90;99.90;;;;;;5033927;28;20435;-78
2024/02/06 11:09:15;;;;;;;13.23;7.80;;;10.90;99.90;;;;;;5033817;28;20439;-76
2024/02/06 11:11:43;;;;;;;11.10;7.77;;;10.80;99.90;;;;;;5034655;28;20463;-76
2024/02/06 11:14:15;;;;;;;13.23;7.70;;;10.80;99.90;;;;;;5033466;28;20513;-76
2024/02/06 11:16:47;;;;;;;10.63;7.70;;;10.80;99.90;;;;;;5035267;28;20431;-76
2024/02/06 11:19:22;;;;;;;13.00;8.37;;;10.80;99.90;;;;;;5033443;28;20857;-77
2024/02/06 11:22:00;;;;;;;13.00;8.00;;;10.80;99.90;;;;;;5034470;28;20418;-76
2024/02/06 11:24:30;;;;;;;15.23;8.70;;;10.80;99.90;;;;;;5033741;28;20843;-76
2024/02/06 11:26:59;;;;;;;15.20;8.10;;;10.80;99.90;;;;;;5033358;28;20547;-77
2024/02/06 11:29:28;;;;;;;15.57;8.13;;;10.80;99.90;;;;;;5033316;28;20463;-76
2024/02/06 11:31:57;;;;;;;10.93;8.40;;;10.80;99.90;;;;;;5033211;28;20471;-76
2024/02/06 11:34:25;;;;;;;14.77;9.77;;;10.80;99.90;;;;;;5033224;28;20495;-76
2024/02/06 11:36:58;;;;;;;16.10;10.17;;;10.80;99.90;;;;;;5033369;28;20479;-77
2024/02/06 11:39:27;;;;;;;11.97;9.30;;;10.80;99.90;;;;;;5033384;28;20449;-76
2024/02/06 11:42:01;;;;;;;12.43;8.30;;;10.80;99.90;;;;;;5032892;28;20481;-76
2024/02/06 11:44:29;;;;;;;11.87;8.93;;;10.80;99.90;;;;;;5032822;28;20554;-76
2024/02/06 11:46:59;;;;;;;13.70;9.20;;;10.80;99.90;;;;;;5032987;28;20909;-76
2024/02/06 11:49:27;;;;;;;12.33;9.43;;;10.70;99.90;;;;;;5032977;28;20466;-76
2024/02/06 11:51:58;;;;;;;13.30;8.83;;;10.80;99.90;;;;;;5032745;28;20497;-76
2024/02/06 11:54:27;;;;;;;13.70;9.60;;;10.70;99.90;;;;;;5033909;28;20999;-76
2024/02/06 11:56:58;;;;;;;17.27;9.20;;;10.70;99.90;;;;;;5032747;28;20459;-76
2024/02/06 11:59:27;;;;;;;14.13;9.67;;;10.70;99.90;;;;;;5033924;28;20419;-76
2024/02/06 12:01:55;;;;;;;15.70;9.50;;;10.70;99.90;;;;;;5032509;28;20439;-76
2024/02/06 12:04:24;;;;;;;14.00;8.70;;;10.80;99.90;;;;;;5032522;28;20466;-76
2024/02/06 12:07:05;;;;;;;10.13;8.60;;;10.70;99.90;;;;;;5032712;28;20581;-76
2024/02/06 12:09:40;;;;;;;13.00;8.60;;;10.70;99.90;;;;;;5032587;28;20439;-76
2024/02/06 12:12:09;;;;;;;11.60;8.57;;;10.70;99.90;;;;;;5033835;28;20994;-77
2024/02/06 12:14:38;;;;;;;12.00;9.17;;;10.80;99.90;;;;;;5032586;28;20525;-77
2024/02/06 12:17:06;;;;;;;15.50;10.30;;;10.70;99.90;;;;;;5032431;28;20526;-77
2024/02/06 12:19:35;;;;;;;13.80;10.20;;;10.70;99.90;;;;;;5032389;28;20454;-76
2024/02/06 12:22:07;;;;;;;13.23;9.67;;;10.80;99.90;;;;;;5033548;28;20435;-76
2024/02/06 12:24:35;;;;;;;14.83;9.67;;;10.80;99.90;;;;;;5033768;28;20450;-76
2024/02/06 12:27:05;;;;;;;12.03;9.13;;;10.80;99.90;;;;;;5032154;28;20796;-76
2024/02/06 12:29:37;;;;;;;16.43;10.00;;;10.80;99.90;;;;;;5032793;28;20442;-76
2024/02/06 12:32:06;;;;;;;13.37;9.57;;;10.80;99.90;;;;;;5032143;28;20467;-77
2024/02/06 12:34:36;;;;;;;14.33;9.50;;;10.80;99.90;;;;;;5032177;28;20992;-76
2024/02/06 12:37:06;;;;;;;19.50;9.33;;;10.80;99.90;;;;;;5033955;28;20925;-77
2024/02/06 12:39:34;;;;;;;9.93;8.63;;;10.80;99.90;;;;;;5032144;28;20482;-76
2024/02/06 12:42:03;;;;;;;13.07;8.40;;;10.80;99.90;;;;;;5032021;28;20450;-76